Terminal Aerodrome Forecast
Issued by NWS Cleveland, OH

Current Version | Previous Version | Text Only | Print | Product List | Glossary On
Versions: 1 2 3 4 5 6 7 8 9 10 11 12 13 14 15 16 17 18 19 20 21 22 23 24 25 26 27
000
FTUS41 KCLE 232300
TAFCLE
TAF
KCLE 232339Z 2400/2506 35010KT P6SM BKN025 OVC040
     FM240100 36009KT P6SM BKN040
     FM240300 36006KT P6SM SCT040
     FM241600 01012KT P6SM SCT045
     FM250100 VRB04KT P6SM SKC=

USA.gov is the U.S. government's official web portal to all federal, state and local government web resources and services.